createdAt,value
2022-08-07T00:02:39.659Z,15.70
2022-08-07T00:05:12.830Z,15.70
2022-08-07T00:07:45.621Z,15.70
2022-08-07T00:10:27.171Z,15.70
2022-08-07T00:13:17.499Z,15.70
2022-08-07T00:15:58.855Z,15.60
2022-08-07T00:18:33.665Z,15.64
2022-08-07T00:21:56.195Z,15.70
2022-08-07T00:24:04.156Z,15.70
2022-08-07T00:26:49.301Z,15.70
2022-08-07T00:29:32.213Z,15.70
2022-08-07T00:32:05.976Z,15.70
2022-08-07T00:34:39.873Z,15.70
2022-08-07T00:37:12.745Z,15.70
2022-08-07T00:39:54.264Z,15.70
2022-08-07T00:42:29.010Z,15.60
2022-08-07T00:45:02.696Z,15.60
2022-08-07T00:48:18.402Z,15.60
2022-08-07T00:50:46.497Z,15.50
2022-08-07T00:53:24.925Z,15.50
2022-08-07T00:56:03.403Z,15.40
2022-08-07T00:58:37.548Z,15.38
2022-08-07T01:01:14.028Z,15.30
2022-08-07T01:03:55.802Z,15.20
2022-08-07T01:06:33.611Z,15.20
2022-08-07T01:09:09.414Z,15.10
2022-08-07T01:12:27.438Z,15.00
2022-08-07T01:15:01.715Z,14.96
2022-08-07T01:17:37.675Z,14.90
2022-08-07T01:20:17.455Z,14.80
2022-08-07T01:23:00.417Z,14.80
2022-08-07T01:25:55.234Z,14.70
2022-08-07T01:28:31.007Z,14.66
2022-08-07T01:31:06.553Z,14.60
2022-08-07T01:33:56.141Z,14.60
2022-08-07T01:36:36.467Z,14.50
2022-08-07T01:39:20.262Z,14.50
2022-08-07T01:42:38.776Z,14.50
2022-08-07T01:44:56.627Z,14.40
2022-08-07T01:48:19.302Z,14.40
2022-08-07T01:50:29.015Z,14.40
2022-08-07T01:53:08.582Z,14.40
2022-08-07T01:55:50.819Z,14.34
2022-08-07T01:58:29.861Z,14.30
2022-08-07T02:01:25.346Z,14.30
2022-08-07T02:04:13.099Z,14.30
2022-08-07T02:06:48.509Z,14.28
2022-08-07T02:09:51.604Z,14.20
2022-08-07T02:12:29.095Z,14.20
2022-08-07T02:15:05.867Z,14.20
2022-08-07T02:17:49.811Z,14.20
2022-08-07T02:20:26.486Z,14.20
2022-08-07T02:23:04.601Z,14.20
2022-08-07T02:26:31.905Z,14.20
2022-08-07T02:28:34.547Z,14.20
2022-08-07T02:31:18.665Z,14.20
2022-08-07T02:34:11.300Z,14.18
2022-08-07T02:36:53.526Z,14.10
2022-08-07T02:39:42.964Z,14.10
2022-08-07T02:42:21.173Z,14.06
2022-08-07T02:44:58.420Z,14.00
2022-08-07T02:47:45.102Z,13.90
2022-08-07T02:50:22.448Z,13.90
2022-08-07T02:53:06.296Z,13.80
2022-08-07T02:56:02.431Z,13.80
2022-08-07T02:58:47.462Z,13.70
2022-08-07T03:01:35.323Z,13.70
2022-08-07T03:04:13.899Z,13.60
2022-08-07T03:06:50.739Z,13.60
2022-08-07T03:09:44.720Z,13.50
2022-08-07T03:12:22.529Z,13.50
2022-08-07T03:15:08.703Z,13.40
2022-08-07T03:17:52.942Z,13.40
2022-08-07T03:20:28.993Z,13.30
2022-08-07T03:23:03.752Z,13.20
2022-08-07T03:25:41.654Z,13.10
2022-08-07T03:28:38.039Z,13.00
2022-08-07T03:31:26.141Z,12.90
2022-08-07T03:34:22.014Z,12.80
2022-08-07T03:36:58.664Z,12.70
2022-08-07T03:39:58.921Z,12.70
2022-08-07T03:42:29.143Z,12.60
2022-08-07T03:45:02.548Z,12.52
2022-08-07T03:47:47.783Z,12.50
2022-08-07T03:50:28.379Z,12.50
2022-08-07T03:53:04.444Z,12.50
2022-08-07T03:55:52.796Z,12.50
2022-08-07T03:59:07.152Z,12.50
2022-08-07T04:01:30.210Z,12.50
2022-08-07T04:04:05.713Z,12.50
2022-08-07T04:06:41.836Z,12.56
2022-08-07T04:09:19.954Z,12.60
2022-08-07T04:12:23.945Z,12.60
2022-08-07T04:14:53.048Z,12.60
2022-08-07T04:18:30.730Z,12.70
2022-08-07T04:20:19.872Z,12.70
2022-08-07T04:23:01.378Z,12.78
2022-08-07T04:25:40.857Z,12.80
2022-08-07T04:28:15.745Z,12.90
2022-08-07T04:30:58.659Z,12.92
2022-08-07T04:33:38.819Z,13.00
2022-08-07T04:36:13.217Z,13.10
2022-08-07T04:38:47.589Z,13.20
2022-08-07T04:41:20.549Z,13.20
2022-08-07T04:44:13.171Z,13.30
2022-08-07T04:47:08.105Z,13.44
2022-08-07T04:50:03.905Z,13.72
2022-08-07T04:52:51.765Z,14.00
2022-08-07T04:58:15.884Z,14.40
2022-08-07T04:59:09.203Z,14.62
2022-08-07T05:01:44.031Z,14.70
2022-08-07T05:04:32.989Z,14.80
2022-08-07T05:07:19.581Z,14.90
2022-08-07T05:10:00.808Z,15.00
2022-08-07T05:12:46.214Z,15.10
2022-08-07T05:15:32.351Z,15.30
2022-08-07T05:18:16.393Z,15.70
2022-08-07T05:20:58.035Z,16.20
2022-08-07T05:23:38.047Z,16.38
2022-08-07T05:26:24.107Z,16.44
2022-08-07T05:29:06.052Z,16.60
2022-08-07T05:31:51.275Z,16.70
2022-08-07T05:34:29.843Z,16.70
2022-08-07T05:37:05.986Z,16.80
2022-08-07T05:39:47.771Z,16.80
2022-08-07T05:42:40.853Z,16.90
2022-08-07T05:45:47.104Z,17.00
2022-08-07T05:48:12.031Z,17.68
2022-08-07T05:50:50.680Z,18.10
2022-08-07T05:54:09.384Z,18.10
2022-08-07T05:56:20.332Z,18.10
2022-08-07T05:59:09.921Z,18.10
2022-08-07T06:01:44.536Z,18.18
2022-08-07T06:04:22.246Z,18.20
2022-08-07T06:07:06.153Z,18.28
2022-08-07T06:10:03.762Z,18.30
2022-08-07T06:12:37.211Z,18.40
2022-08-07T06:15:16.382Z,18.40
2022-08-07T06:17:55.377Z,18.50
2022-08-07T06:20:50.790Z,18.60
2022-08-07T06:24:37.100Z,18.60
2022-08-07T06:26:19.420Z,18.70
2022-08-07T06:28:58.948Z,18.80
2022-08-07T06:31:49.366Z,19.00
2022-08-07T06:34:28.086Z,19.10
2022-08-07T06:37:03.718Z,19.20
2022-08-07T06:40:16.977Z,19.26
2022-08-07T06:42:37.862Z,19.40
2022-08-07T06:45:24.074Z,19.50
2022-08-07T06:48:01.858Z,19.50
2022-08-07T06:50:47.818Z,19.60
2022-08-07T06:55:29.758Z,19.64
2022-08-07T06:56:49.833Z,19.80
2022-08-07T07:00:11.857Z,19.98
2022-08-07T07:02:54.529Z,20.10
2022-08-07T07:06:02.408Z,20.10
2022-08-07T07:08:18.418Z,20.30
2022-08-07T07:10:58.971Z,20.40
2022-08-07T07:13:58.169Z,20.54
2022-08-07T07:16:49.487Z,20.60
2022-08-07T07:19:57.240Z,20.70
2022-08-07T07:22:36.673Z,20.70
2022-08-07T07:26:32.119Z,20.80
2022-08-07T07:28:29.896Z,21.00
2022-08-07T07:31:21.456Z,21.06
2022-08-07T07:34:00.103Z,21.10
2022-08-07T07:36:35.679Z,21.20
2022-08-07T07:39:15.255Z,21.38
2022-08-07T07:42:13.777Z,21.50
2022-08-07T07:44:50.514Z,21.54
2022-08-07T07:47:24.605Z,21.60
2022-08-07T07:50:33.578Z,21.70
2022-08-07T07:52:52.323Z,21.88
2022-08-07T07:55:37.065Z,21.94
2022-08-07T07:58:11.492Z,22.00
2022-08-07T08:00:50.842Z,22.00
2022-08-07T08:04:10.990Z,22.20
2022-08-07T08:06:21.566Z,22.20
2022-08-07T08:08:59.094Z,22.24
2022-08-07T08:12:00.007Z,22.30
2022-08-07T08:14:26.663Z,22.34
2022-08-07T08:17:32.295Z,22.40
2022-08-07T08:20:17.829Z,22.40
2022-08-07T08:23:11.231Z,22.50
2022-08-07T08:26:07.251Z,22.70
2022-08-07T08:28:45.073Z,22.90
2022-08-07T08:31:30.169Z,23.00
2022-08-07T08:34:27.252Z,23.00
2022-08-07T08:37:04.122Z,23.00
2022-08-07T08:39:54.910Z,23.10
2022-08-07T08:42:40.309Z,23.30
2022-08-07T08:45:21.352Z,23.60
2022-08-07T08:48:11.234Z,23.70
2022-08-07T08:50:54.021Z,23.80
2022-08-07T08:53:39.805Z,24.04
2022-08-07T08:56:17.010Z,24.50
2022-08-07T08:59:06.504Z,24.90
2022-08-07T09:01:58.532Z,25.00
2022-08-07T09:04:44.065Z,25.08
2022-08-07T09:07:28.690Z,25.44
2022-08-07T09:10:16.886Z,25.86
2022-08-07T09:12:58.966Z,26.28
2022-08-07T09:16:22.154Z,26.70
2022-08-07T09:19:51.323Z,27.00
2022-08-07T09:24:31.342Z,26.80
2022-08-07T09:25:24.323Z,27.08
2022-08-07T09:28:05.972Z,27.50
2022-08-07T09:31:07.502Z,27.64
2022-08-07T09:34:08.241Z,27.40
2022-08-07T09:36:49.982Z,27.50
2022-08-07T09:39:54.420Z,27.80
2022-08-07T09:42:54.258Z,28.20
2022-08-07T09:47:24.874Z,28.60
2022-08-07T09:50:01.950Z,28.20
2022-08-07T09:52:16.158Z,28.04
2022-08-07T09:55:28.883Z,27.92
2022-08-07T09:58:43.522Z,28.26
2022-08-07T10:01:53.546Z,29.06
2022-08-07T10:04:53.370Z,29.78
2022-08-07T10:07:53.028Z,30.34
2022-08-07T10:14:02.194Z,30.60
2022-08-07T10:17:14.380Z,30.64
2022-08-07T10:20:12.961Z,31.08
2022-08-07T10:23:12.302Z,31.40
2022-08-07T10:26:02.827Z,32.12
2022-08-07T10:28:59.706Z,32.80
2022-08-07T10:31:54.771Z,32.70
2022-08-07T10:34:49.402Z,32.90
2022-08-07T10:37:59.853Z,33.28
2022-08-07T10:40:44.313Z,33.80
2022-08-07T10:43:34.526Z,34.30
2022-08-07T10:46:17.028Z,34.70
2022-08-07T10:49:15.168Z,33.96
2022-08-07T10:52:13.476Z,33.70
2022-08-07T10:55:01.662Z,34.14
2022-08-07T10:57:56.007Z,34.60
2022-08-07T11:00:39.250Z,35.12
2022-08-07T11:03:37.878Z,35.92
2022-08-07T11:06:33.853Z,36.20
2022-08-07T11:10:10.158Z,34.42
2022-08-07T11:12:19.101Z,32.20
2022-08-07T11:15:17.291Z,33.48
2022-08-07T11:18:03.771Z,34.94
2022-08-07T11:20:56.932Z,35.90
2022-08-07T11:23:48.529Z,36.62
2022-08-07T11:26:33.169Z,37.20
2022-08-07T11:29:40.751Z,37.80
2022-08-07T11:32:25.969Z,38.20
2022-08-07T11:35:04.410Z,38.70
2022-08-07T11:38:10.253Z,39.10
2022-08-07T11:40:58.759Z,39.46
2022-08-07T11:43:54.534Z,39.90
2022-08-07T11:46:48.955Z,39.90
2022-08-07T11:50:11.499Z,40.20
2022-08-07T11:52:53.247Z,40.58
2022-08-07T11:56:24.841Z,40.50
2022-08-07T11:58:58.894Z,40.74
2022-08-07T12:02:00.646Z,40.30
2022-08-07T12:04:58.685Z,40.60
2022-08-07T12:07:39.057Z,40.60
2022-08-07T12:10:23.129Z,40.72
2022-08-07T12:13:11.539Z,40.50
2022-08-07T12:16:06.875Z,40.80
2022-08-07T12:18:52.013Z,41.14
2022-08-07T12:21:55.615Z,41.60
2022-08-07T12:25:08.079Z,41.80
2022-08-07T12:28:09.905Z,40.80
2022-08-07T12:30:46.549Z,39.60
2022-08-07T12:33:30.785Z,39.94
2022-08-07T12:36:20.344Z,40.66
2022-08-07T12:39:41.155Z,41.20
2022-08-07T12:42:02.591Z,41.48
2022-08-07T12:44:40.051Z,41.96
2022-08-07T12:47:37.843Z,42.26
2022-08-07T12:50:33.819Z,41.60
2022-08-07T12:53:22.266Z,41.28
2022-08-07T12:56:09.112Z,41.50
2022-08-07T12:58:53.193Z,41.80
2022-08-07T13:01:54.003Z,42.02
2022-08-07T13:05:01.984Z,42.50
2022-08-07T13:08:31.998Z,43.10
2022-08-07T13:11:26.758Z,43.14
2022-08-07T13:14:09.851Z,43.30
2022-08-07T13:16:55.531Z,43.30
2022-08-07T13:19:51.718Z,43.02
2022-08-07T13:22:32.409Z,42.58
2022-08-07T13:25:23.926Z,42.50
2022-08-07T13:28:13.267Z,42.72
2022-08-07T13:31:01.789Z,42.90
2022-08-07T13:34:30.594Z,43.04
2022-08-07T13:36:54.091Z,42.90
2022-08-07T13:40:33.337Z,42.70
2022-08-07T13:42:35.150Z,42.70
2022-08-07T13:46:06.835Z,42.60
2022-08-07T13:48:20.836Z,42.70
2022-08-07T13:51:20.459Z,43.00
2022-08-07T13:54:03.878Z,43.00
2022-08-07T13:56:51.791Z,43.16
2022-08-07T13:59:32.547Z,43.08
2022-08-07T14:02:13.142Z,43.02
2022-08-07T14:04:54.823Z,43.10
2022-08-07T14:07:33.555Z,43.10
2022-08-07T14:10:17.537Z,43.10
2022-08-07T14:12:58.738Z,43.00
2022-08-07T14:15:39.755Z,42.90
2022-08-07T14:18:29.240Z,42.66
2022-08-07T14:22:02.259Z,42.20
2022-08-07T14:24:10.270Z,42.40
2022-08-07T14:26:50.994Z,42.70
2022-08-07T14:30:05.871Z,42.70
2022-08-07T14:32:25.035Z,43.00
2022-08-07T14:35:03.936Z,43.28
2022-08-07T14:37:39.985Z,43.40
2022-08-07T14:40:26.357Z,43.30
2022-08-07T14:43:55.533Z,43.10
2022-08-07T14:46:01.009Z,43.14
2022-08-07T14:48:37.832Z,42.58
2022-08-07T14:51:19.640Z,42.20
2022-08-07T14:56:51.165Z,42.30
2022-08-07T15:00:06.220Z,42.30
2022-08-07T15:05:23.517Z,41.90
2022-08-07T15:07:58.116Z,41.56
2022-08-07T15:10:32.269Z,41.40
2022-08-07T15:13:13.774Z,41.58
2022-08-07T15:15:52.607Z,42.00
2022-08-07T15:18:36.075Z,42.20
2022-08-07T15:25:12.961Z,41.94
2022-08-07T15:27:16.150Z,41.60
2022-08-07T15:30:10.226Z,41.20
2022-08-07T15:36:01.407Z,40.60
2022-08-07T15:38:51.980Z,40.24
2022-08-07T15:42:43.905Z,39.60
2022-08-07T15:44:30.150Z,39.82
2022-08-07T15:47:09.001Z,40.10
2022-08-07T15:50:05.660Z,40.30
2022-08-07T15:52:41.367Z,40.28
2022-08-07T15:55:23.316Z,39.70
2022-08-07T15:58:20.971Z,39.30
2022-08-07T16:00:54.544Z,39.42
2022-08-07T16:03:47.314Z,39.50
2022-08-07T16:06:34.988Z,39.60
2022-08-07T16:09:22.858Z,39.50
2022-08-07T16:12:12.420Z,38.96
2022-08-07T16:15:55.361Z,38.80
2022-08-07T16:18:49.584Z,38.60
2022-08-07T16:22:01.210Z,38.30
2022-08-07T16:24:35.720Z,38.00
2022-08-07T16:27:20.845Z,37.92
2022-08-07T16:30:30.217Z,37.70
2022-08-07T16:34:01.771Z,37.60
2022-08-07T16:36:31.320Z,37.40
2022-08-07T16:39:40.521Z,36.84
2022-08-07T16:42:49.519Z,35.12
2022-08-07T16:46:47.379Z,33.06
2022-08-07T16:50:20.673Z,30.90
2022-08-07T16:53:09.863Z,29.06
2022-08-07T16:55:47.364Z,28.02
2022-08-07T16:59:02.272Z,27.26
2022-08-07T17:01:56.565Z,26.60
2022-08-07T17:04:57.799Z,25.96
2022-08-07T17:07:55.743Z,25.40
2022-08-07T17:10:54.940Z,25.04
2022-08-07T17:14:19.640Z,24.70
2022-08-07T17:17:02.731Z,24.40
2022-08-07T17:20:02.735Z,24.20
2022-08-07T17:22:45.066Z,24.00
2022-08-07T17:25:47.729Z,23.80
2022-08-07T17:28:25.615Z,23.60
2022-08-07T17:31:16.428Z,23.48
2022-08-07T17:34:32.859Z,23.30
2022-08-07T17:38:06.707Z,23.16
2022-08-07T17:40:10.876Z,23.00
2022-08-07T17:42:59.459Z,22.90
2022-08-07T17:45:41.138Z,22.70
2022-08-07T17:48:30.748Z,22.60
2022-08-07T17:51:21.262Z,22.50
2022-08-07T17:54:06.531Z,22.38
2022-08-07T17:56:52.615Z,22.20
2022-08-07T17:59:37.452Z,22.10
2022-08-07T18:02:16.061Z,22.00
2022-08-07T18:05:21.808Z,21.90
2022-08-07T18:08:16.426Z,21.80
2022-08-07T18:12:11.909Z,21.70
2022-08-07T18:14:18.190Z,21.52
2022-08-07T18:17:05.186Z,21.40
2022-08-07T18:21:11.036Z,21.30
2022-08-07T18:22:50.363Z,21.14
2022-08-07T18:25:40.456Z,21.00
2022-08-07T18:28:35.844Z,20.82
2022-08-07T18:31:25.332Z,20.70
2022-08-07T18:34:40.913Z,20.56
2022-08-07T18:38:55.822Z,20.40
2022-08-07T18:40:50.153Z,20.24
2022-08-07T18:43:50.506Z,20.10
2022-08-07T18:46:42.974Z,20.00
2022-08-07T18:50:19.542Z,19.98
2022-08-07T18:53:01.436Z,19.90
2022-08-07T18:55:56.013Z,19.80
2022-08-07T18:58:57.681Z,19.70
2022-08-07T19:02:33.139Z,19.60
2022-08-07T19:04:57.513Z,19.50
2022-08-07T19:07:51.959Z,19.50
2022-08-07T19:10:51.442Z,19.40
2022-08-07T19:13:50.039Z,19.40
2022-08-07T19:17:04.782Z,19.38
2022-08-07T19:19:57.519Z,19.30
2022-08-07T19:22:38.386Z,19.20
2022-08-07T19:26:24.824Z,19.18
2022-08-07T19:28:58.072Z,19.10
2022-08-07T19:31:37.312Z,19.02
2022-08-07T19:34:34.280Z,19.00
2022-08-07T19:37:17.339Z,18.90
2022-08-07T19:40:02.257Z,18.86
2022-08-07T19:42:42.630Z,18.80
2022-08-07T19:46:08.008Z,18.70
2022-08-07T19:48:19.128Z,18.70
2022-08-07T19:51:01.003Z,18.60
2022-08-07T19:54:33.901Z,18.50
2022-08-07T19:57:56.786Z,18.42
2022-08-07T19:59:41.609Z,18.40
2022-08-07T20:02:29.464Z,18.40
2022-08-07T20:05:07.986Z,18.30
2022-08-07T20:07:47.776Z,18.30
2022-08-07T20:10:35.351Z,18.30
2022-08-07T20:13:32.314Z,18.20
2022-08-07T20:16:31.914Z,18.20
2022-08-07T20:19:10.405Z,18.20
2022-08-07T20:21:47.643Z,18.20
2022-08-07T20:24:28.728Z,18.14
2022-08-07T20:27:07.627Z,18.10
2022-08-07T20:29:59.219Z,18.10
2022-08-07T20:32:40.265Z,18.10
2022-08-07T20:35:26.135Z,18.04
2022-08-07T20:38:01.053Z,18.00
2022-08-07T20:40:41.276Z,17.92
2022-08-07T20:43:19.716Z,17.90
2022-08-07T20:46:28.442Z,17.80
2022-08-07T20:49:53.882Z,17.80
2022-08-07T20:51:50.794Z,17.74
2022-08-07T20:54:29.743Z,17.70
2022-08-07T20:57:10.230Z,17.70
2022-08-07T21:00:07.502Z,17.60
2022-08-07T21:03:01.689Z,17.60
2022-08-07T21:05:54.918Z,17.50
2022-08-07T21:08:39.254Z,17.40
2022-08-07T21:11:18.929Z,17.30
2022-08-07T21:14:32.535Z,17.20
2022-08-07T21:18:00.903Z,17.10
2022-08-07T21:20:05.013Z,17.02
2022-08-07T21:22:44.681Z,17.00
2022-08-07T21:25:28.912Z,16.90
2022-08-07T21:28:16.747Z,16.90
2022-08-07T21:31:31.227Z,16.80
2022-08-07T21:34:26.755Z,16.80
2022-08-07T21:37:14.094Z,16.70
2022-08-07T21:39:59.374Z,16.70
2022-08-07T21:42:48.339Z,16.60
2022-08-07T21:46:09.921Z,16.60
2022-08-07T21:48:33.520Z,16.56
2022-08-07T21:51:20.374Z,16.50
2022-08-07T21:54:13.581Z,16.50
2022-08-07T21:57:31.019Z,16.40
2022-08-07T22:00:23.139Z,16.40
2022-08-07T22:03:16.795Z,16.40
2022-08-07T22:05:57.093Z,16.32
2022-08-07T22:08:40.050Z,16.40
2022-08-07T22:11:19.283Z,16.50
2022-08-07T22:13:55.725Z,16.50
2022-08-07T22:16:52.641Z,16.54
2022-08-07T22:19:33.404Z,16.60
2022-08-07T22:22:21.117Z,16.60
2022-08-07T22:25:11.337Z,16.70
2022-08-07T22:28:08.003Z,16.70
2022-08-07T22:30:53.931Z,16.70
2022-08-07T22:33:52.654Z,16.76
2022-08-07T22:36:38.479Z,16.78
2022-08-07T22:39:24.555Z,16.78
2022-08-07T22:42:18.968Z,16.72
2022-08-07T22:44:58.964Z,16.70
2022-08-07T22:48:31.361Z,16.70
2022-08-07T22:51:21.957Z,16.66
2022-08-07T22:54:11.208Z,16.60
2022-08-07T22:57:02.620Z,16.50
2022-08-07T23:00:03.642Z,16.40
2022-08-07T23:03:19.355Z,16.30
2022-08-07T23:06:16.768Z,16.20
2022-08-07T23:10:03.925Z,16.20
2022-08-07T23:12:35.675Z,16.20
2022-08-07T23:15:22.058Z,16.20
2022-08-07T23:18:34.393Z,16.30
2022-08-07T23:21:30.468Z,16.30
2022-08-07T23:24:45.718Z,16.40
2022-08-07T23:28:22.558Z,16.40
2022-08-07T23:31:06.615Z,16.30
2022-08-07T23:34:34.420Z,16.20
2022-08-07T23:37:33.229Z,16.08
2022-08-07T23:40:21.121Z,15.90
2022-08-07T23:43:21.555Z,15.78
2022-08-07T23:46:10.681Z,15.60
2022-08-07T23:49:19.852Z,15.50
2022-08-07T23:52:59.617Z,15.40
2022-08-07T23:55:08.496Z,15.30
2022-08-07T23:57:48.732Z,15.20
